createdAt,value
2023-12-30T00:01:06.874Z,98.70
2023-12-30T00:03:42.337Z,98.70
2023-12-30T00:06:19.242Z,98.80
2023-12-30T00:08:53.421Z,98.60
2023-12-30T00:11:27.466Z,98.70
2023-12-30T00:14:01.673Z,98.60
2023-12-30T00:16:35.774Z,98.80
2023-12-30T00:19:13.350Z,99.10
2023-12-30T00:21:47.609Z,98.90
2023-12-30T00:24:21.833Z,99.00
2023-12-30T00:26:55.981Z,98.90
2023-12-30T00:29:30.043Z,99.10
2023-12-30T00:32:04.307Z,99.00
2023-12-30T00:34:39.723Z,99.10
2023-12-30T00:37:14.683Z,99.10
2023-12-30T00:39:49.281Z,99.20
2023-12-30T00:42:23.415Z,99.10
2023-12-30T00:44:57.532Z,99.10
2023-12-30T00:47:31.599Z,99.20
2023-12-30T00:50:08.024Z,99.30
2023-12-30T00:52:42.052Z,99.30
2023-12-30T00:55:16.541Z,99.40
2023-12-30T00:57:50.616Z,99.70
2023-12-30T01:00:24.640Z,99.50
2023-12-30T01:02:58.931Z,99.60
2023-12-30T01:05:34.427Z,99.70
2023-12-30T01:08:08.614Z,99.70
2023-12-30T01:10:42.865Z,99.60
2023-12-30T01:13:17.884Z,99.70
2023-12-30T01:15:51.956Z,99.70
2023-12-30T01:18:26.608Z,99.70
2023-12-30T01:21:02.187Z,99.70
2023-12-30T01:23:36.222Z,99.80
2023-12-30T01:26:10.318Z,99.80
2023-12-30T01:28:44.466Z,99.90
2023-12-30T01:31:19.984Z,99.80
2023-12-30T01:33:54.212Z,99.80
2023-12-30T01:36:29.653Z,99.70
2023-12-30T01:39:03.732Z,99.60
2023-12-30T01:41:37.791Z,99.50
2023-12-30T01:44:12.014Z,99.50
2023-12-30T01:46:46.339Z,99.80
2023-12-30T01:49:20.498Z,99.40
2023-12-30T01:51:56.675Z,99.30
2023-12-30T01:54:31.954Z,99.30
2023-12-30T01:57:06.865Z,99.30
2023-12-30T01:59:41.715Z,99.30
2023-12-30T02:02:15.985Z,99.40
2023-12-30T02:04:50.223Z,99.30
2023-12-30T02:07:26.434Z,99.30
2023-12-30T02:10:00.635Z,99.20
2023-12-30T02:12:34.717Z,99.20
2023-12-30T02:15:16.506Z,99.10
2023-12-30T02:17:53.105Z,99.00
2023-12-30T02:20:27.266Z,98.80
2023-12-30T02:23:02.998Z,98.60
2023-12-30T02:25:37.214Z,98.80
2023-12-30T02:28:12.121Z,98.50
2023-12-30T02:30:46.255Z,98.20
2023-12-30T02:33:20.469Z,98.20
2023-12-30T02:35:54.996Z,98.10
2023-12-30T02:38:30.432Z,98.20
2023-12-30T02:41:04.606Z,98.20
2023-12-30T02:43:56.555Z,98.30
2023-12-30T02:46:30.823Z,98.30
2023-12-30T02:49:06.381Z,98.30
2023-12-30T02:51:40.604Z,98.30
2023-12-30T02:54:16.021Z,98.30
2023-12-30T02:56:50.105Z,98.30
2023-12-30T02:59:24.236Z,99.00
2023-12-30T03:01:58.339Z,98.20
2023-12-30T03:04:32.686Z,98.00
2023-12-30T03:07:06.829Z,98.00
2023-12-30T03:09:42.516Z,98.00
2023-12-30T03:12:17.024Z,98.00
2023-12-30T03:14:51.067Z,98.00
2023-12-30T03:17:25.252Z,97.90
2023-12-30T03:19:59.347Z,97.70
2023-12-30T03:22:33.888Z,97.50
2023-12-30T03:25:10.506Z,97.60
2023-12-30T03:27:44.763Z,97.30
2023-12-30T03:30:19.099Z,97.20
2023-12-30T03:32:53.294Z,97.10
2023-12-30T03:35:27.492Z,97.00
2023-12-30T03:38:01.626Z,97.00
2023-12-30T03:40:37.108Z,97.00
2023-12-30T03:43:11.271Z,97.00
2023-12-30T03:45:45.389Z,97.00
2023-12-30T03:48:19.503Z,96.90
2023-12-30T03:50:53.629Z,96.90
2023-12-30T03:53:27.655Z,97.00
2023-12-30T03:56:03.660Z,96.80
2023-12-30T03:58:37.744Z,96.80
2023-12-30T04:01:13.285Z,96.80
2023-12-30T04:03:47.370Z,96.70
2023-12-30T04:06:21.675Z,96.80
2023-12-30T04:08:55.726Z,96.80
2023-12-30T04:11:31.104Z,96.80
2023-12-30T04:14:05.183Z,96.80
2023-12-30T04:16:39.293Z,96.80
2023-12-30T04:19:13.488Z,97.10
2023-12-30T04:21:47.677Z,96.80
2023-12-30T04:24:21.981Z,96.80
2023-12-30T04:26:57.410Z,96.80
2023-12-30T04:29:31.503Z,97.00
2023-12-30T04:32:06.292Z,96.80
2023-12-30T04:34:40.606Z,96.80
2023-12-30T04:37:16.989Z,96.90
2023-12-30T04:39:51.159Z,96.80
2023-12-30T04:42:26.636Z,96.90
2023-12-30T04:45:00.734Z,96.80
2023-12-30T04:47:34.903Z,96.90
2023-12-30T04:50:10.325Z,96.80
2023-12-30T04:52:45.058Z,96.80
2023-12-30T04:55:19.262Z,96.80
2023-12-30T04:57:55.051Z,97.10
2023-12-30T05:00:29.355Z,96.90
2023-12-30T05:03:04.286Z,97.00
2023-12-30T05:05:38.693Z,97.00
2023-12-30T05:08:13.142Z,97.00
2023-12-30T05:10:47.979Z,97.10
2023-12-30T05:13:23.745Z,97.10
2023-12-30T05:15:58.453Z,97.20
2023-12-30T05:18:32.653Z,97.30
2023-12-30T05:21:13.615Z,97.40
2023-12-30T05:23:47.751Z,97.50
2023-12-30T05:26:21.849Z,97.60
2023-12-30T05:28:58.892Z,97.70
2023-12-30T05:31:33.389Z,98.10
2023-12-30T05:34:08.437Z,98.20
2023-12-30T05:36:42.883Z,98.30
2023-12-30T05:39:17.898Z,98.50
2023-12-30T05:41:51.977Z,98.30
2023-12-30T05:44:27.487Z,98.30
2023-12-30T05:47:01.617Z,98.30
2023-12-30T05:49:36.970Z,98.30
2023-12-30T05:52:11.219Z,98.40
2023-12-30T05:54:46.562Z,98.50
2023-12-30T05:57:21.098Z,98.50
2023-12-30T05:59:56.521Z,98.40
2023-12-30T06:02:30.686Z,98.40
2023-12-30T06:05:05.513Z,98.40
2023-12-30T06:07:40.592Z,98.40
2023-12-30T06:10:15.901Z,98.40
2023-12-30T06:12:58.272Z,98.40
2023-12-30T06:15:32.406Z,98.50
2023-12-30T06:18:06.881Z,98.50
2023-12-30T06:20:41.091Z,98.70
2023-12-30T06:23:15.665Z,98.80
2023-12-30T06:25:49.893Z,98.80
2023-12-30T06:28:27.482Z,98.90
2023-12-30T06:31:02.349Z,98.80
2023-12-30T06:33:37.838Z,98.80
2023-12-30T06:36:12.505Z,98.30
2023-12-30T06:38:46.603Z,99.90
2023-12-30T06:41:21.141Z,99.00
2023-12-30T06:43:56.756Z,99.00
2023-12-30T06:46:31.623Z,99.10
2023-12-30T06:49:06.001Z,98.90
2023-12-30T06:51:40.356Z,99.90
2023-12-30T06:54:14.990Z,99.60
2023-12-30T06:56:50.595Z,99.80
2023-12-30T06:59:26.186Z,99.80
2023-12-30T07:02:00.487Z,99.90
2023-12-30T07:04:35.284Z,99.90
2023-12-30T07:07:09.936Z,99.90
2023-12-30T07:09:44.049Z,99.90
2023-12-30T07:12:18.562Z,99.90
2023-12-30T07:14:54.158Z,99.90
2023-12-30T07:17:28.905Z,99.90
2023-12-30T07:20:03.536Z,99.90
2023-12-30T07:22:37.859Z,99.90
2023-12-30T07:25:12.341Z,99.90
2023-12-30T07:30:22.967Z,99.90
2023-12-30T07:32:57.240Z,99.90
2023-12-30T07:35:31.678Z,99.90
2023-12-30T07:38:05.992Z,99.90
2023-12-30T07:40:40.508Z,99.90
2023-12-30T07:43:15.105Z,99.90
2023-12-30T07:45:50.760Z,99.90
2023-12-30T07:48:25.339Z,99.90
2023-12-30T07:51:01.131Z,99.90
2023-12-30T07:53:35.582Z,99.90
2023-12-30T07:56:09.956Z,99.90
2023-12-30T07:58:44.183Z,99.90
2023-12-30T08:01:20.459Z,99.90
2023-12-30T08:03:54.866Z,99.90
2023-12-30T08:06:29.646Z,99.90
2023-12-30T08:09:05.407Z,99.90
2023-12-30T08:11:50.120Z,99.90
2023-12-30T08:14:33.078Z,99.90
2023-12-30T08:17:08.705Z,99.90
2023-12-30T08:19:43.306Z,99.90
2023-12-30T08:22:17.478Z,99.90
2023-12-30T08:24:54.685Z,99.90
2023-12-30T08:27:28.889Z,99.90
2023-12-30T08:30:03.292Z,99.90
2023-12-30T08:32:38.867Z,99.90
2023-12-30T08:35:14.346Z,99.90
2023-12-30T08:37:49.114Z,99.90
2023-12-30T08:40:23.347Z,99.90
2023-12-30T08:42:57.605Z,99.80
2023-12-30T08:45:34.749Z,99.90
2023-12-30T08:48:10.820Z,99.90
2023-12-30T08:50:46.090Z,99.70
2023-12-30T08:53:25.963Z,99.50
2023-12-30T08:56:00.495Z,99.30
2023-12-30T08:58:35.023Z,99.30
2023-12-30T09:01:09.356Z,99.10
2023-12-30T09:03:46.311Z,99.00
2023-12-30T09:06:21.478Z,98.60
2023-12-30T09:08:56.250Z,98.70
2023-12-30T09:11:30.425Z,99.00
2023-12-30T09:14:05.152Z,98.40
2023-12-30T09:16:39.344Z,98.40
2023-12-30T09:19:15.996Z,98.40
2023-12-30T09:21:50.406Z,98.40
2023-12-30T09:24:24.640Z,98.20
2023-12-30T09:26:58.725Z,98.10
2023-12-30T09:29:32.838Z,98.00
2023-12-30T09:32:08.847Z,98.30
2023-12-30T09:34:44.918Z,97.80
2023-12-30T09:37:21.052Z,97.70
2023-12-30T09:39:55.745Z,97.80
2023-12-30T09:42:30.062Z,97.90
2023-12-30T09:45:05.504Z,97.90
2023-12-30T09:47:41.367Z,97.80
2023-12-30T09:50:18.374Z,97.70
2023-12-30T09:52:54.757Z,97.60
2023-12-30T09:55:29.663Z,97.30
2023-12-30T09:58:07.207Z,96.50
2023-12-30T10:00:44.371Z,96.90
2023-12-30T10:03:19.567Z,96.90
2023-12-30T10:05:56.907Z,97.10
2023-12-30T10:08:32.381Z,97.60
2023-12-30T10:11:10.966Z,97.30
2023-12-30T10:13:46.430Z,97.30
2023-12-30T10:16:21.392Z,98.20
2023-12-30T10:18:57.709Z,97.40
2023-12-30T10:21:34.271Z,98.10
2023-12-30T10:24:10.712Z,97.80
2023-12-30T10:26:45.728Z,97.30
2023-12-30T10:29:20.577Z,97.30
2023-12-30T10:32:04.853Z,97.40
2023-12-30T10:34:41.891Z,97.40
2023-12-30T10:37:18.396Z,97.30
2023-12-30T10:39:55.680Z,97.30
2023-12-30T10:42:30.267Z,97.30
2023-12-30T10:45:04.821Z,97.30
2023-12-30T10:47:43.977Z,97.60
2023-12-30T10:50:18.473Z,97.40
2023-12-30T10:53:02.725Z,97.80
2023-12-30T10:55:38.943Z,97.60
2023-12-30T10:58:19.095Z,97.30
2023-12-30T11:00:56.734Z,97.70
2023-12-30T11:03:33.362Z,97.30
2023-12-30T11:06:23.270Z,97.40
2023-12-30T11:09:08.766Z,97.50
2023-12-30T11:11:50.658Z,98.00
2023-12-30T11:14:25.196Z,97.50
2023-12-30T11:16:59.370Z,97.40
2023-12-30T11:19:37.197Z,97.60
2023-12-30T11:22:13.420Z,97.60
2023-12-30T11:24:50.497Z,97.40
2023-12-30T11:27:25.865Z,97.70
2023-12-30T11:30:00.138Z,97.70
2023-12-30T11:32:35.180Z,97.60
2023-12-30T11:35:10.419Z,97.70
2023-12-30T11:37:47.223Z,97.30
2023-12-30T11:40:24.596Z,97.00
2023-12-30T11:45:35.554Z,96.30
2023-12-30T11:48:11.386Z,97.50
2023-12-30T11:53:21.072Z,96.10
2023-12-30T11:58:33.246Z,95.60
2023-12-30T12:01:09.651Z,95.40
2023-12-30T12:03:44.593Z,95.30
2023-12-30T12:06:20.322Z,95.30
2023-12-30T12:08:54.658Z,96.40
2023-12-30T12:11:31.033Z,96.60
2023-12-30T12:14:05.576Z,95.60
2023-12-30T12:19:17.246Z,95.20
2023-12-30T12:21:51.495Z,95.20
2023-12-30T12:24:26.802Z,95.30
2023-12-30T12:27:02.930Z,95.40
2023-12-30T12:29:46.870Z,95.40
2023-12-30T12:32:22.247Z,95.10
2023-12-30T12:34:56.459Z,95.00
2023-12-30T12:37:31.109Z,94.80
2023-12-30T12:40:11.973Z,94.50
2023-12-30T12:42:48.100Z,94.40
2023-12-30T12:45:22.616Z,94.70
2023-12-30T12:47:59.659Z,94.50
2023-12-30T12:50:37.016Z,94.40
2023-12-30T12:53:11.211Z,94.50
2023-12-30T13:02:07.555Z,94.90
2023-12-30T13:05:01.736Z,95.20
2023-12-30T13:07:39.966Z,95.00
2023-12-30T13:10:40.129Z,95.00
2023-12-30T13:13:18.392Z,95.50
2023-12-30T13:15:56.854Z,95.80
2023-12-30T13:18:32.395Z,95.90
2023-12-30T13:21:10.659Z,95.30
2023-12-30T13:23:52.008Z,95.40
2023-12-30T13:26:33.536Z,95.60
2023-12-30T13:29:16.444Z,95.70
2023-12-30T13:32:17.005Z,96.00
2023-12-30T13:34:59.869Z,94.50
2023-12-30T13:37:46.218Z,95.60
2023-12-30T13:40:34.843Z,96.40
2023-12-30T13:43:23.795Z,96.70
2023-12-30T13:46:35.746Z,95.90
2023-12-30T13:49:51.980Z,96.10
2023-12-30T13:52:46.274Z,96.40
2023-12-30T13:55:49.103Z,95.80
2023-12-30T13:58:35.715Z,95.10
2023-12-30T14:01:24.522Z,95.90
2023-12-30T14:03:59.493Z,95.40
2023-12-30T14:06:38.987Z,96.60
2023-12-30T14:09:27.894Z,96.30
2023-12-30T14:12:07.915Z,96.20
2023-12-30T14:17:33.252Z,94.80
2023-12-30T14:20:10.671Z,96.00
2023-12-30T14:22:49.101Z,94.90
2023-12-30T14:25:25.630Z,95.10
2023-12-30T14:28:01.709Z,95.10
2023-12-30T14:30:38.890Z,95.10
2023-12-30T14:33:15.277Z,95.10
2023-12-30T14:35:50.708Z,95.30
2023-12-30T14:38:28.754Z,95.30
2023-12-30T14:41:06.139Z,95.30
2023-12-30T14:43:42.600Z,95.30
2023-12-30T14:46:17.773Z,95.20
2023-12-30T14:48:55.027Z,95.50
2023-12-30T14:51:29.796Z,97.00
2023-12-30T14:56:48.673Z,95.50
2023-12-30T14:59:46.851Z,95.60
2023-12-30T15:02:34.055Z,97.00
2023-12-30T15:05:15.378Z,96.00
2023-12-30T15:07:55.632Z,96.20
2023-12-30T15:13:07.691Z,95.80
2023-12-30T15:15:44.820Z,96.00
2023-12-30T15:18:22.621Z,96.10
2023-12-30T15:20:57.004Z,95.90
2023-12-30T15:23:34.108Z,97.60
2023-12-30T15:26:14.431Z,96.20
2023-12-30T15:28:53.471Z,96.40
2023-12-30T15:31:32.444Z,96.50
2023-12-30T15:34:13.903Z,96.50
2023-12-30T15:36:57.340Z,97.10
2023-12-30T15:39:36.645Z,96.90
2023-12-30T15:42:19.571Z,96.90
2023-12-30T15:44:57.671Z,97.00
2023-12-30T15:47:37.639Z,97.20
2023-12-30T15:50:17.589Z,97.20
2023-12-30T15:52:55.884Z,97.20
2023-12-30T15:55:34.380Z,97.30
2023-12-30T15:58:39.657Z,97.20
2023-12-30T16:01:47.626Z,97.20
2023-12-30T16:04:57.036Z,98.90
2023-12-30T16:07:43.359Z,97.00
2023-12-30T16:10:26.331Z,97.50
2023-12-30T16:13:10.112Z,99.10
2023-12-30T16:15:58.712Z,98.80
2023-12-30T16:18:37.789Z,98.90
2023-12-30T16:21:20.709Z,98.60
2023-12-30T16:24:44.443Z,98.20
2023-12-30T16:28:30.969Z,98.20
2023-12-30T16:32:35.923Z,97.00
2023-12-30T16:36:03.248Z,97.80
2023-12-30T16:38:37.591Z,97.60
2023-12-30T16:41:12.019Z,98.00
2023-12-30T16:43:46.082Z,97.70
2023-12-30T16:46:22.045Z,98.30
2023-12-30T16:51:32.507Z,97.70
2023-12-30T16:54:09.479Z,97.80
2023-12-30T16:56:43.607Z,97.90
2023-12-30T16:59:17.637Z,97.90
2023-12-30T17:01:51.691Z,98.00
2023-12-30T17:04:28.819Z,98.00
2023-12-30T17:07:02.897Z,98.40
2023-12-30T17:09:37.155Z,98.10
2023-12-30T17:12:11.443Z,98.10
2023-12-30T17:14:45.511Z,98.10
2023-12-30T17:17:19.888Z,98.10
2023-12-30T17:19:55.307Z,98.20
2023-12-30T17:22:30.319Z,98.30
2023-12-30T17:25:04.576Z,98.70
2023-12-30T17:27:38.723Z,98.50
2023-12-30T17:30:14.098Z,98.40
2023-12-30T17:32:51.191Z,98.50
2023-12-30T17:35:27.823Z,98.50
2023-12-30T17:38:01.997Z,98.40
2023-12-30T17:40:36.243Z,98.40
2023-12-30T17:43:10.310Z,98.60
2023-12-30T17:45:44.514Z,98.60
2023-12-30T17:48:18.637Z,98.60
2023-12-30T17:50:54.847Z,99.00
2023-12-30T17:53:29.857Z,98.70
2023-12-30T17:56:04.100Z,98.70
2023-12-30T17:58:38.183Z,98.70
2023-12-30T18:01:12.953Z,98.80
2023-12-30T18:03:47.126Z,99.10
2023-12-30T18:06:22.581Z,98.80
2023-12-30T18:08:56.851Z,99.00
2023-12-30T18:11:30.913Z,99.10
2023-12-30T18:14:05.162Z,99.30
2023-12-30T18:16:39.335Z,99.40
2023-12-30T18:19:13.538Z,99.50
2023-12-30T18:21:48.965Z,99.50
2023-12-30T18:24:23.020Z,99.30
2023-12-30T18:26:59.529Z,99.60
2023-12-30T18:29:33.803Z,99.60
2023-12-30T18:32:11.636Z,99.70
2023-12-30T18:34:45.779Z,99.70
2023-12-30T18:37:21.263Z,99.80
2023-12-30T18:39:55.392Z,99.80
2023-12-30T18:42:29.416Z,99.90
2023-12-30T18:45:04.361Z,99.90
2023-12-30T18:47:39.700Z,99.70
2023-12-30T18:50:15.098Z,99.70
2023-12-30T18:52:51.143Z,99.80
2023-12-30T18:55:25.842Z,99.90
2023-12-30T18:57:59.951Z,99.90
2023-12-30T19:00:34.100Z,99.90
2023-12-30T19:03:09.703Z,99.90
2023-12-30T19:05:43.965Z,99.90
2023-12-30T19:08:19.599Z,99.90
2023-12-30T19:10:53.712Z,99.80
2023-12-30T19:13:27.810Z,99.70
2023-12-30T19:16:02.023Z,99.80
2023-12-30T19:18:36.218Z,99.80
2023-12-30T19:21:10.329Z,99.90
2023-12-30T19:23:45.796Z,99.90
2023-12-30T19:26:20.663Z,99.80
2023-12-30T19:28:54.701Z,99.80
2023-12-30T19:31:28.748Z,99.80
2023-12-30T19:34:02.889Z,99.90
2023-12-30T19:36:39.243Z,99.90
2023-12-30T19:39:14.726Z,99.90
2023-12-30T19:41:48.786Z,99.90
2023-12-30T19:44:22.955Z,99.30
2023-12-30T19:46:57.051Z,99.80
2023-12-30T19:49:31.092Z,99.90
2023-12-30T19:52:05.689Z,99.90
2023-12-30T19:54:41.505Z,99.90
2023-12-30T19:57:15.629Z,99.90
2023-12-30T19:59:49.639Z,99.90
2023-12-30T20:02:23.800Z,99.90
2023-12-30T20:04:59.483Z,99.90
2023-12-30T20:07:35.787Z,99.90
2023-12-30T20:10:12.539Z,99.90
2023-12-30T20:12:47.052Z,99.90
2023-12-30T20:15:21.153Z,99.90
2023-12-30T20:17:57.017Z,99.90
2023-12-30T20:20:31.582Z,99.90
2023-12-30T20:23:05.956Z,99.90
2023-12-30T20:25:41.890Z,99.90
2023-12-30T20:28:16.056Z,99.90
2023-12-30T20:30:50.161Z,99.90
2023-12-30T20:33:24.376Z,99.90
2023-12-30T20:35:58.591Z,99.90
2023-12-30T20:38:32.662Z,99.90
2023-12-30T20:41:09.054Z,99.90
2023-12-30T20:43:43.268Z,99.90
2023-12-30T20:46:17.453Z,99.90
2023-12-30T20:48:51.537Z,99.90
2023-12-30T20:51:25.647Z,99.90
2023-12-30T20:54:00.895Z,99.90
2023-12-30T20:56:36.312Z,99.90
2023-12-30T20:59:10.360Z,99.90
2023-12-30T21:01:44.434Z,99.90
2023-12-30T21:04:18.588Z,99.90
2023-12-30T21:06:52.704Z,99.90
2023-12-30T21:09:26.720Z,99.90
2023-12-30T21:12:03.627Z,99.90
2023-12-30T21:14:37.683Z,99.90
2023-12-30T21:17:12.870Z,99.90
2023-12-30T21:19:49.466Z,99.90
2023-12-30T21:22:23.630Z,99.90
2023-12-30T21:24:58.067Z,99.90
2023-12-30T21:27:33.604Z,99.90
2023-12-30T21:30:11.440Z,99.90
2023-12-30T21:32:47.710Z,99.90
2023-12-30T21:35:22.203Z,99.90
2023-12-30T21:37:56.273Z,99.90
2023-12-30T21:40:30.402Z,99.90
2023-12-30T21:43:06.372Z,99.90
2023-12-30T21:45:40.706Z,99.90
2023-12-30T21:48:15.147Z,99.90
2023-12-30T21:50:50.111Z,99.90
2023-12-30T21:53:24.595Z,99.90
2023-12-30T21:55:58.657Z,99.90
2023-12-30T21:58:34.130Z,99.90
2023-12-30T22:01:08.361Z,99.90
2023-12-30T22:03:42.521Z,99.90
2023-12-30T22:06:16.785Z,99.90
2023-12-30T22:08:51.541Z,99.90
2023-12-30T22:11:28.306Z,99.90
2023-12-30T22:14:04.024Z,99.90
2023-12-30T22:16:43.066Z,99.90
2023-12-30T22:19:17.963Z,99.90
2023-12-30T22:21:52.327Z,99.90
2023-12-30T22:24:26.324Z,99.90
2023-12-30T22:27:00.376Z,99.90
2023-12-30T22:29:35.786Z,99.90
2023-12-30T22:32:09.858Z,99.90
2023-12-30T22:34:43.949Z,99.90
2023-12-30T22:37:18.173Z,99.90
2023-12-30T22:39:52.263Z,99.90
2023-12-30T22:42:26.304Z,99.90
2023-12-30T22:45:01.705Z,99.90
2023-12-30T22:47:36.948Z,99.90
2023-12-30T22:50:11.660Z,99.90
2023-12-30T22:52:46.822Z,99.90
2023-12-30T22:55:21.055Z,99.90
2023-12-30T22:57:55.172Z,99.90
2023-12-30T23:00:34.597Z,99.90
2023-12-30T23:03:08.966Z,99.90
2023-12-30T23:05:43.423Z,99.90
2023-12-30T23:08:17.628Z,99.90
2023-12-30T23:10:51.710Z,99.90
2023-12-30T23:13:25.813Z,99.90
2023-12-30T23:16:01.644Z,99.90
2023-12-30T23:18:35.991Z,99.90
2023-12-30T23:21:10.144Z,99.90
2023-12-30T23:23:44.373Z,99.90
2023-12-30T23:26:18.412Z,99.90
2023-12-30T23:28:52.407Z,99.90
2023-12-30T23:31:27.787Z,99.90
2023-12-30T23:34:02.654Z,99.90
2023-12-30T23:36:36.883Z,99.90
2023-12-30T23:39:10.993Z,99.90
2023-12-30T23:41:45.118Z,99.90
2023-12-30T23:44:19.408Z,99.90
2023-12-30T23:46:54.810Z,99.90
2023-12-30T23:49:28.857Z,99.90
2023-12-30T23:52:02.947Z,99.90
2023-12-30T23:54:36.995Z,99.90
2023-12-30T23:57:11.150Z,99.90
2023-12-30T23:59:45.196Z,99.90
